KFOE 200653Z AUTO 02007KT 10SM CLR 12/06 A3004 RMK AO2 SLP170 T01170056